sensor_id;sensor_type;location;lat;lon;timestamp;P1;durP1;ratioP1;P2;durP2;ratioP2
31482;SDS011;18103;52.246;8.052;2023-06-04T00:02:14;2.67;;;1.43;;
31482;SDS011;18103;52.246;8.052;2023-06-04T00:04:43;1.80;;;1.20;;
31482;SDS011;18103;52.246;8.052;2023-06-04T00:07:14;5.23;;;1.00;;
31482;SDS011;18103;52.246;8.052;2023-06-04T00:09:39;2.30;;;1.10;;
31482;SDS011;18103;52.246;8.052;2023-06-04T00:12:07;3.03;;;1.53;;
31482;SDS011;18103;52.246;8.052;2023-06-04T00:14:35;2.43;;;1.13;;
31482;SDS011;18103;52.246;8.052;2023-06-04T00:17:03;5.80;;;1.30;;
31482;SDS011;18103;52.246;8.052;2023-06-04T00:19:28;2.63;;;1.30;;
31482;SDS011;18103;52.246;8.052;2023-06-04T00:21:54;2.03;;;1.13;;
31482;SDS011;18103;52.246;8.052;2023-06-04T00:24:24;6.37;;;1.07;;
31482;SDS011;18103;52.246;8.052;2023-06-04T00:26:49;2.60;;;1.30;;
31482;SDS011;18103;52.246;8.052;2023-06-04T00:29:14;3.27;;;1.47;;
31482;SDS011;18103;52.246;8.052;2023-06-04T00:31:40;4.83;;;1.27;;
31482;SDS011;18103;52.246;8.052;2023-06-04T00:34:09;1.73;;;1.27;;
31482;SDS011;18103;52.246;8.052;2023-06-04T00:36:35;3.23;;;1.40;;
31482;SDS011;18103;52.246;8.052;2023-06-04T00:39:00;4.23;;;1.17;;
31482;SDS011;18103;52.246;8.052;2023-06-04T00:41:26;19.50;;;7.60;;
31482;SDS011;18103;52.246;8.052;2023-06-04T00:43:54;21.10;;;7.63;;
31482;SDS011;18103;52.246;8.052;2023-06-04T00:46:23;13.40;;;5.13;;
31482;SDS011;18103;52.246;8.052;2023-06-04T00:48:53;10.20;;;3.50;;
31482;SDS011;18103;52.246;8.052;2023-06-04T00:51:19;8.60;;;1.97;;
31482;SDS011;18103;52.246;8.052;2023-06-04T00:53:46;2.80;;;2.00;;
31482;SDS011;18103;52.246;8.052;2023-06-04T00:56:12;3.53;;;1.47;;
31482;SDS011;18103;52.246;8.052;2023-06-04T00:58:40;5.00;;;1.60;;
31482;SDS011;18103;52.246;8.052;2023-06-04T01:01:17;2.57;;;1.27;;
31482;SDS011;18103;52.246;8.052;2023-06-04T01:03:51;3.37;;;1.50;;
31482;SDS011;18103;52.246;8.052;2023-06-04T01:06:32;1.90;;;1.20;;
31482;SDS011;18103;52.246;8.052;2023-06-04T01:09:05;4.63;;;1.70;;
31482;SDS011;18103;52.246;8.052;2023-06-04T01:11:34;5.33;;;1.30;;
31482;SDS011;18103;52.246;8.052;2023-06-04T01:14:01;4.67;;;1.53;;
31482;SDS011;18103;52.246;8.052;2023-06-04T01:16:28;2.53;;;1.40;;
31482;SDS011;18103;52.246;8.052;2023-06-04T01:18:58;3.67;;;1.33;;
31482;SDS011;18103;52.246;8.052;2023-06-04T01:21:28;3.13;;;1.30;;
31482;SDS011;18103;52.246;8.052;2023-06-04T01:23:56;4.10;;;1.70;;
31482;SDS011;18103;52.246;8.052;2023-06-04T01:26:29;1.93;;;1.00;;
31482;SDS011;18103;52.246;8.052;2023-06-04T01:28:55;2.47;;;1.50;;
31482;SDS011;18103;52.246;8.052;2023-06-04T01:31:23;6.40;;;1.37;;
31482;SDS011;18103;52.246;8.052;2023-06-04T01:33:55;5.67;;;2.00;;
31482;SDS011;18103;52.246;8.052;2023-06-04T01:36:24;2.27;;;1.50;;
31482;SDS011;18103;52.246;8.052;2023-06-04T01:38:52;2.43;;;1.50;;
31482;SDS011;18103;52.246;8.052;2023-06-04T01:41:20;2.50;;;1.67;;
31482;SDS011;18103;52.246;8.052;2023-06-04T01:43:48;2.67;;;1.70;;
31482;SDS011;18103;52.246;8.052;2023-06-04T01:46:13;2.80;;;1.20;;
31482;SDS011;18103;52.246;8.052;2023-06-04T01:48:38;3.30;;;2.07;;
31482;SDS011;18103;52.246;8.052;2023-06-04T01:51:05;4.47;;;1.87;;
31482;SDS011;18103;52.246;8.052;2023-06-04T01:53:34;2.60;;;1.43;;
31482;SDS011;18103;52.246;8.052;2023-06-04T01:56:02;2.70;;;1.47;;
31482;SDS011;18103;52.246;8.052;2023-06-04T01:58:27;2.97;;;1.30;;
31482;SDS011;18103;52.246;8.052;2023-06-04T02:00:54;2.13;;;1.83;;
31482;SDS011;18103;52.246;8.052;2023-06-04T02:03:20;1.77;;;1.20;;
31482;SDS011;18103;52.246;8.052;2023-06-04T02:05:49;4.63;;;1.57;;
31482;SDS011;18103;52.246;8.052;2023-06-04T02:08:17;4.43;;;1.43;;
31482;SDS011;18103;52.246;8.052;2023-06-04T02:10:50;2.83;;;1.53;;
31482;SDS011;18103;52.246;8.052;2023-06-04T02:13:18;4.57;;;2.00;;
31482;SDS011;18103;52.246;8.052;2023-06-04T02:15:48;3.67;;;1.43;;
31482;SDS011;18103;52.246;8.052;2023-06-04T02:18:20;4.73;;;1.80;;
31482;SDS011;18103;52.246;8.052;2023-06-04T02:20:49;1.63;;;1.27;;
31482;SDS011;18103;52.246;8.052;2023-06-04T02:23:15;2.83;;;1.33;;
31482;SDS011;18103;52.246;8.052;2023-06-04T02:25:42;2.03;;;1.53;;
31482;SDS011;18103;52.246;8.052;2023-06-04T02:28:13;5.30;;;1.57;;
31482;SDS011;18103;52.246;8.052;2023-06-04T02:30:38;4.53;;;1.50;;
31482;SDS011;18103;52.246;8.052;2023-06-04T02:33:06;7.40;;;1.30;;
31482;SDS011;18103;52.246;8.052;2023-06-04T02:35:34;3.07;;;1.37;;
31482;SDS011;18103;52.246;8.052;2023-06-04T02:38:00;3.27;;;1.53;;
31482;SDS011;18103;52.246;8.052;2023-06-04T02:40:30;3.27;;;1.77;;
31482;SDS011;18103;52.246;8.052;2023-06-04T02:42:58;3.73;;;1.60;;
31482;SDS011;18103;52.246;8.052;2023-06-04T02:45:26;2.73;;;1.50;;
31482;SDS011;18103;52.246;8.052;2023-06-04T02:47:53;2.00;;;1.40;;
31482;SDS011;18103;52.246;8.052;2023-06-04T02:50:19;6.43;;;1.50;;
31482;SDS011;18103;52.246;8.052;2023-06-04T02:52:47;3.90;;;1.60;;
31482;SDS011;18103;52.246;8.052;2023-06-04T02:55:12;2.23;;;1.43;;
31482;SDS011;18103;52.246;8.052;2023-06-04T02:57:41;2.07;;;1.30;;
31482;SDS011;18103;52.246;8.052;2023-06-04T03:00:07;4.20;;;1.57;;
31482;SDS011;18103;52.246;8.052;2023-06-04T03:02:38;2.90;;;1.43;;
31482;SDS011;18103;52.246;8.052;2023-06-04T03:05:04;3.97;;;1.20;;
31482;SDS011;18103;52.246;8.052;2023-06-04T03:07:30;2.73;;;1.50;;
31482;SDS011;18103;52.246;8.052;2023-06-04T03:09:58;3.10;;;1.80;;
31482;SDS011;18103;52.246;8.052;2023-06-04T03:12:24;4.13;;;1.60;;
31482;SDS011;18103;52.246;8.052;2023-06-04T03:14:55;2.63;;;1.60;;
31482;SDS011;18103;52.246;8.052;2023-06-04T03:17:21;2.87;;;1.63;;
31482;SDS011;18103;52.246;8.052;2023-06-04T03:19:46;2.50;;;1.30;;
31482;SDS011;18103;52.246;8.052;2023-06-04T03:22:13;2.00;;;1.40;;
31482;SDS011;18103;52.246;8.052;2023-06-04T03:24:39;2.70;;;1.20;;
31482;SDS011;18103;52.246;8.052;2023-06-04T03:27:07;2.73;;;1.80;;
31482;SDS011;18103;52.246;8.052;2023-06-04T03:29:34;3.77;;;1.50;;
31482;SDS011;18103;52.246;8.052;2023-06-04T03:32:05;5.37;;;1.43;;
31482;SDS011;18103;52.246;8.052;2023-06-04T03:34:31;4.63;;;1.80;;
31482;SDS011;18103;52.246;8.052;2023-06-04T03:36:59;2.77;;;1.70;;
31482;SDS011;18103;52.246;8.052;2023-06-04T03:39:25;4.00;;;1.40;;
31482;SDS011;18103;52.246;8.052;2023-06-04T03:41:50;1.87;;;1.40;;
31482;SDS011;18103;52.246;8.052;2023-06-04T03:44:16;2.37;;;1.30;;
31482;SDS011;18103;52.246;8.052;2023-06-04T03:46:44;2.27;;;1.63;;
31482;SDS011;18103;52.246;8.052;2023-06-04T03:49:13;4.00;;;1.40;;
31482;SDS011;18103;52.246;8.052;2023-06-04T03:51:39;3.73;;;1.30;;
31482;SDS011;18103;52.246;8.052;2023-06-04T03:54:05;3.13;;;1.33;;
31482;SDS011;18103;52.246;8.052;2023-06-04T03:56:32;9.23;;;1.80;;
31482;SDS011;18103;52.246;8.052;2023-06-04T03:58:58;2.57;;;1.60;;
31482;SDS011;18103;52.246;8.052;2023-06-04T04:01:26;5.27;;;1.50;;
31482;SDS011;18103;52.246;8.052;2023-06-04T04:03:53;3.83;;;1.40;;
31482;SDS011;18103;52.246;8.052;2023-06-04T04:06:20;7.97;;;1.43;;
31482;SDS011;18103;52.246;8.052;2023-06-04T04:08:48;4.00;;;1.80;;
31482;SDS011;18103;52.246;8.052;2023-06-04T04:11:14;4.77;;;1.57;;
31482;SDS011;18103;52.246;8.052;2023-06-04T04:13:40;3.00;;;1.50;;
31482;SDS011;18103;52.246;8.052;2023-06-04T04:16:06;3.50;;;1.70;;
31482;SDS011;18103;52.246;8.052;2023-06-04T04:18:34;2.73;;;1.50;;
31482;SDS011;18103;52.246;8.052;2023-06-04T04:21:01;4.33;;;1.67;;
31482;SDS011;18103;52.246;8.052;2023-06-04T04:23:30;4.83;;;1.60;;
31482;SDS011;18103;52.246;8.052;2023-06-04T04:25:58;4.23;;;1.80;;
31482;SDS011;18103;52.246;8.052;2023-06-04T04:28:27;8.17;;;1.63;;
31482;SDS011;18103;52.246;8.052;2023-06-04T04:30:57;3.77;;;1.83;;
31482;SDS011;18103;52.246;8.052;2023-06-04T04:33:24;2.37;;;1.87;;
31482;SDS011;18103;52.246;8.052;2023-06-04T04:35:52;6.00;;;1.80;;
31482;SDS011;18103;52.246;8.052;2023-06-04T04:38:21;6.57;;;1.67;;
31482;SDS011;18103;52.246;8.052;2023-06-04T04:40:48;4.60;;;1.90;;
31482;SDS011;18103;52.246;8.052;2023-06-04T04:43:27;5.53;;;1.97;;
31482;SDS011;18103;52.246;8.052;2023-06-04T04:45:54;2.83;;;1.80;;
31482;SDS011;18103;52.246;8.052;2023-06-04T04:48:22;1.93;;;1.47;;
31482;SDS011;18103;52.246;8.052;2023-06-04T04:50:49;2.33;;;1.73;;
31482;SDS011;18103;52.246;8.052;2023-06-04T04:53:15;4.97;;;1.60;;
31482;SDS011;18103;52.246;8.052;2023-06-04T04:55:40;2.40;;;1.83;;
31482;SDS011;18103;52.246;8.052;2023-06-04T04:58:08;4.77;;;1.90;;
31482;SDS011;18103;52.246;8.052;2023-06-04T05:00:36;4.57;;;2.10;;
31482;SDS011;18103;52.246;8.052;2023-06-04T05:03:03;3.23;;;1.67;;
31482;SDS011;18103;52.246;8.052;2023-06-04T05:05:28;9.10;;;2.23;;
31482;SDS011;18103;52.246;8.052;2023-06-04T05:07:57;3.50;;;2.00;;
31482;SDS011;18103;52.246;8.052;2023-06-04T05:10:22;5.33;;;2.00;;
31482;SDS011;18103;52.246;8.052;2023-06-04T05:12:54;3.50;;;1.80;;
31482;SDS011;18103;52.246;8.052;2023-06-04T05:15:20;6.67;;;2.00;;
31482;SDS011;18103;52.246;8.052;2023-06-04T05:17:46;3.10;;;1.77;;
31482;SDS011;18103;52.246;8.052;2023-06-04T05:20:14;7.63;;;2.10;;
31482;SDS011;18103;52.246;8.052;2023-06-04T05:22:40;4.70;;;2.03;;
31482;SDS011;18103;52.246;8.052;2023-06-04T05:25:07;7.60;;;2.30;;
31482;SDS011;18103;52.246;8.052;2023-06-04T05:27:33;6.20;;;1.83;;
31482;SDS011;18103;52.246;8.052;2023-06-04T05:30:00;3.67;;;1.90;;
31482;SDS011;18103;52.246;8.052;2023-06-04T05:32:28;3.10;;;1.77;;
31482;SDS011;18103;52.246;8.052;2023-06-04T05:34:54;4.57;;;1.90;;
31482;SDS011;18103;52.246;8.052;2023-06-04T05:37:22;5.93;;;1.93;;
31482;SDS011;18103;52.246;8.052;2023-06-04T05:39:49;6.37;;;1.97;;
31482;SDS011;18103;52.246;8.052;2023-06-04T05:42:19;6.87;;;1.87;;
31482;SDS011;18103;52.246;8.052;2023-06-04T05:44:45;6.90;;;1.83;;
31482;SDS011;18103;52.246;8.052;2023-06-04T05:47:10;2.67;;;1.53;;
31482;SDS011;18103;52.246;8.052;2023-06-04T05:49:38;4.87;;;1.80;;
31482;SDS011;18103;52.246;8.052;2023-06-04T05:52:03;4.20;;;1.90;;
31482;SDS011;18103;52.246;8.052;2023-06-04T05:54:34;4.47;;;1.40;;
31482;SDS011;18103;52.246;8.052;2023-06-04T05:56:59;5.20;;;2.10;;
31482;SDS011;18103;52.246;8.052;2023-06-04T05:59:30;3.30;;;1.70;;
31482;SDS011;18103;52.246;8.052;2023-06-04T06:01:58;4.73;;;1.60;;
31482;SDS011;18103;52.246;8.052;2023-06-04T06:04:27;1.70;;;1.30;;
31482;SDS011;18103;52.246;8.052;2023-06-04T06:06:52;6.67;;;1.80;;
31482;SDS011;18103;52.246;8.052;2023-06-04T06:09:21;4.67;;;1.30;;
31482;SDS011;18103;52.246;8.052;2023-06-04T06:11:46;4.80;;;2.00;;
31482;SDS011;18103;52.246;8.052;2023-06-04T06:14:12;4.03;;;1.80;;
31482;SDS011;18103;52.246;8.052;2023-06-04T06:16:37;2.60;;;1.40;;
31482;SDS011;18103;52.246;8.052;2023-06-04T06:19:02;3.47;;;1.87;;
31482;SDS011;18103;52.246;8.052;2023-06-04T06:21:28;3.97;;;1.63;;
31482;SDS011;18103;52.246;8.052;2023-06-04T06:23:56;1.90;;;1.43;;
31482;SDS011;18103;52.246;8.052;2023-06-04T06:26:23;6.47;;;1.70;;
31482;SDS011;18103;52.246;8.052;2023-06-04T06:28:50;4.60;;;1.47;;
31482;SDS011;18103;52.246;8.052;2023-06-04T06:31:15;2.77;;;2.00;;
31482;SDS011;18103;52.246;8.052;2023-06-04T06:33:40;3.77;;;1.67;;
31482;SDS011;18103;52.246;8.052;2023-06-04T06:36:12;2.77;;;1.93;;
31482;SDS011;18103;52.246;8.052;2023-06-04T06:38:38;5.47;;;1.47;;
31482;SDS011;18103;52.246;8.052;2023-06-04T06:41:03;3.73;;;1.37;;
31482;SDS011;18103;52.246;8.052;2023-06-04T06:43:29;5.17;;;1.73;;
31482;SDS011;18103;52.246;8.052;2023-06-04T06:45:54;6.50;;;1.70;;
31482;SDS011;18103;52.246;8.052;2023-06-04T06:48:22;5.57;;;1.40;;
31482;SDS011;18103;52.246;8.052;2023-06-04T06:50:47;3.17;;;1.50;;
31482;SDS011;18103;52.246;8.052;2023-06-04T06:53:15;6.43;;;1.47;;
31482;SDS011;18103;52.246;8.052;2023-06-04T06:55:41;3.70;;;1.57;;
31482;SDS011;18103;52.246;8.052;2023-06-04T06:58:09;2.00;;;1.30;;
31482;SDS011;18103;52.246;8.052;2023-06-04T07:00:34;5.90;;;1.50;;
31482;SDS011;18103;52.246;8.052;2023-06-04T07:03:03;2.83;;;1.43;;
31482;SDS011;18103;52.246;8.052;2023-06-04T07:05:33;5.20;;;1.67;;
31482;SDS011;18103;52.246;8.052;2023-06-04T07:08:01;3.13;;;1.33;;
31482;SDS011;18103;52.246;8.052;2023-06-04T07:10:27;4.63;;;1.70;;
31482;SDS011;18103;52.246;8.052;2023-06-04T07:12:54;2.00;;;1.30;;
31482;SDS011;18103;52.246;8.052;2023-06-04T07:15:20;6.07;;;1.23;;
31482;SDS011;18103;52.246;8.052;2023-06-04T07:17:45;4.10;;;1.40;;
31482;SDS011;18103;52.246;8.052;2023-06-04T07:20:18;2.43;;;1.20;;
31482;SDS011;18103;52.246;8.052;2023-06-04T07:22:46;2.93;;;1.57;;
31482;SDS011;18103;52.246;8.052;2023-06-04T07:25:11;4.03;;;1.30;;
31482;SDS011;18103;52.246;8.052;2023-06-04T07:27:37;6.63;;;2.47;;
31482;SDS011;18103;52.246;8.052;2023-06-04T07:30:02;4.70;;;1.17;;
31482;SDS011;18103;52.246;8.052;2023-06-04T07:32:28;2.80;;;1.83;;
31482;SDS011;18103;52.246;8.052;2023-06-04T07:34:53;3.03;;;1.27;;
31482;SDS011;18103;52.246;8.052;2023-06-04T07:37:18;2.83;;;1.20;;
31482;SDS011;18103;52.246;8.052;2023-06-04T07:39:46;2.70;;;1.40;;
31482;SDS011;18103;52.246;8.052;2023-06-04T07:42:11;3.87;;;1.23;;
31482;SDS011;18103;52.246;8.052;2023-06-04T07:44:40;3.40;;;1.37;;
31482;SDS011;18103;52.246;8.052;2023-06-04T07:47:07;4.53;;;1.13;;
31482;SDS011;18103;52.246;8.052;2023-06-04T07:49:35;3.47;;;1.40;;
31482;SDS011;18103;52.246;8.052;2023-06-04T07:52:03;1.97;;;0.80;;
31482;SDS011;18103;52.246;8.052;2023-06-04T07:54:29;1.70;;;1.13;;
31482;SDS011;18103;52.246;8.052;2023-06-04T07:56:54;2.33;;;1.17;;
31482;SDS011;18103;52.246;8.052;2023-06-04T07:59:22;6.33;;;1.43;;
31482;SDS011;18103;52.246;8.052;2023-06-04T08:01:49;1.43;;;0.87;;
31482;SDS011;18103;52.246;8.052;2023-06-04T08:04:17;2.80;;;1.20;;
31482;SDS011;18103;52.246;8.052;2023-06-04T08:06:43;2.47;;;0.87;;
31482;SDS011;18103;52.246;8.052;2023-06-04T08:09:09;1.33;;;0.80;;
31482;SDS011;18103;52.246;8.052;2023-06-04T08:11:36;4.80;;;0.77;;
31482;SDS011;18103;52.246;8.052;2023-06-04T08:14:04;2.80;;;1.03;;
31482;SDS011;18103;52.246;8.052;2023-06-04T08:16:31;2.40;;;0.77;;
31482;SDS011;18103;52.246;8.052;2023-06-04T08:18:56;1.40;;;0.90;;
31482;SDS011;18103;52.246;8.052;2023-06-04T08:21:29;7.13;;;1.43;;
31482;SDS011;18103;52.246;8.052;2023-06-04T08:23:54;4.17;;;1.00;;
31482;SDS011;18103;52.246;8.052;2023-06-04T08:26:24;1.50;;;0.80;;
31482;SDS011;18103;52.246;8.052;2023-06-04T08:28:52;1.50;;;0.80;;
31482;SDS011;18103;52.246;8.052;2023-06-04T08:31:20;2.57;;;0.70;;
31482;SDS011;18103;52.246;8.052;2023-06-04T08:33:46;1.67;;;1.00;;
31482;SDS011;18103;52.246;8.052;2023-06-04T08:36:12;2.57;;;1.10;;
31482;SDS011;18103;52.246;8.052;2023-06-04T08:38:38;2.17;;;1.13;;
31482;SDS011;18103;52.246;8.052;2023-06-04T08:41:08;2.93;;;0.90;;
31482;SDS011;18103;52.246;8.052;2023-06-04T08:43:40;4.17;;;0.77;;
31482;SDS011;18103;52.246;8.052;2023-06-04T08:46:08;2.57;;;0.93;;
31482;SDS011;18103;52.246;8.052;2023-06-04T08:48:34;0.97;;;0.90;;
31482;SDS011;18103;52.246;8.052;2023-06-04T08:51:02;2.60;;;0.80;;
31482;SDS011;18103;52.246;8.052;2023-06-04T08:53:32;4.43;;;1.00;;
31482;SDS011;18103;52.246;8.052;2023-06-04T08:55:57;3.10;;;1.20;;
31482;SDS011;18103;52.246;8.052;2023-06-04T08:58:26;2.03;;;0.80;;
31482;SDS011;18103;52.246;8.052;2023-06-04T09:00:55;1.97;;;0.73;;
31482;SDS011;18103;52.246;8.052;2023-06-04T09:03:21;6.47;;;1.03;;
31482;SDS011;18103;52.246;8.052;2023-06-04T09:05:50;1.90;;;0.90;;
31482;SDS011;18103;52.246;8.052;2023-06-04T09:08:17;2.87;;;0.80;;
31482;SDS011;18103;52.246;8.052;2023-06-04T09:10:44;1.03;;;0.60;;
31482;SDS011;18103;52.246;8.052;2023-06-04T09:13:14;2.47;;;0.87;;
31482;SDS011;18103;52.246;8.052;2023-06-04T09:15:41;2.23;;;0.83;;
31482;SDS011;18103;52.246;8.052;2023-06-04T09:18:06;1.47;;;1.00;;
31482;SDS011;18103;52.246;8.052;2023-06-04T09:20:34;0.83;;;0.63;;
31482;SDS011;18103;52.246;8.052;2023-06-04T09:23:01;5.47;;;0.90;;
31482;SDS011;18103;52.246;8.052;2023-06-04T09:25:42;4.87;;;0.70;;
31482;SDS011;18103;52.246;8.052;2023-06-04T09:28:11;4.70;;;0.80;;
31482;SDS011;18103;52.246;8.052;2023-06-04T09:30:36;2.70;;;0.70;;
31482;SDS011;18103;52.246;8.052;2023-06-04T09:33:10;1.03;;;0.63;;
31482;SDS011;18103;52.246;8.052;2023-06-04T09:35:37;3.17;;;0.80;;
31482;SDS011;18103;52.246;8.052;2023-06-04T09:38:04;1.60;;;0.70;;
31482;SDS011;18103;52.246;8.052;2023-06-04T09:40:37;5.10;;;0.57;;
31482;SDS011;18103;52.246;8.052;2023-06-04T09:43:03;1.17;;;0.70;;
31482;SDS011;18103;52.246;8.052;2023-06-04T09:45:32;0.80;;;0.70;;
31482;SDS011;18103;52.246;8.052;2023-06-04T09:48:00;2.00;;;0.73;;
31482;SDS011;18103;52.246;8.052;2023-06-04T09:52:55;1.00;;;0.80;;
31482;SDS011;18103;52.246;8.052;2023-06-04T09:55:21;2.70;;;0.90;;
31482;SDS011;18103;52.246;8.052;2023-06-04T09:57:49;1.37;;;0.70;;
31482;SDS011;18103;52.246;8.052;2023-06-04T10:00:23;2.10;;;0.97;;
31482;SDS011;18103;52.246;8.052;2023-06-04T10:02:55;2.10;;;0.90;;
31482;SDS011;18103;52.246;8.052;2023-06-04T10:05:22;3.80;;;0.80;;
31482;SDS011;18103;52.246;8.052;2023-06-04T10:07:50;1.47;;;0.77;;
31482;SDS011;18103;52.246;8.052;2023-06-04T10:10:20;1.07;;;0.70;;
31482;SDS011;18103;52.246;8.052;2023-06-04T10:13:14;3.90;;;0.70;;
31482;SDS011;18103;52.246;8.052;2023-06-04T10:15:40;1.03;;;0.70;;
31482;SDS011;18103;52.246;8.052;2023-06-04T10:18:06;1.23;;;0.70;;
31482;SDS011;18103;52.246;8.052;2023-06-04T10:20:34;1.80;;;0.97;;
31482;SDS011;18103;52.246;8.052;2023-06-04T10:23:04;1.33;;;0.70;;
31482;SDS011;18103;52.246;8.052;2023-06-04T10:25:33;2.80;;;0.90;;
31482;SDS011;18103;52.246;8.052;2023-06-04T10:28:03;1.17;;;0.70;;
31482;SDS011;18103;52.246;8.052;2023-06-04T10:30:31;0.80;;;0.70;;
31482;SDS011;18103;52.246;8.052;2023-06-04T10:32:57;1.30;;;0.60;;
31482;SDS011;18103;52.246;8.052;2023-06-04T10:38:13;1.73;;;0.80;;
31482;SDS011;18103;52.246;8.052;2023-06-04T10:40:46;1.00;;;0.70;;
31482;SDS011;18103;52.246;8.052;2023-06-04T10:43:15;1.27;;;1.00;;
31482;SDS011;18103;52.246;8.052;2023-06-04T10:45:44;1.40;;;0.87;;
31482;SDS011;18103;52.246;8.052;2023-06-04T10:48:11;0.60;;;0.60;;
31482;SDS011;18103;52.246;8.052;2023-06-04T10:50:48;3.13;;;0.70;;
31482;SDS011;18103;52.246;8.052;2023-06-04T10:53:15;1.50;;;0.80;;
31482;SDS011;18103;52.246;8.052;2023-06-04T10:55:48;1.20;;;0.77;;
31482;SDS011;18103;52.246;8.052;2023-06-04T10:58:14;5.20;;;0.90;;
31482;SDS011;18103;52.246;8.052;2023-06-04T11:00:45;2.97;;;0.80;;
31482;SDS011;18103;52.246;8.052;2023-06-04T11:03:12;0.63;;;0.57;;
31482;SDS011;18103;52.246;8.052;2023-06-04T11:05:45;1.80;;;0.83;;
31482;SDS011;18103;52.246;8.052;2023-06-04T11:08:12;1.43;;;0.83;;
31482;SDS011;18103;52.246;8.052;2023-06-04T11:10:43;0.80;;;0.60;;
31482;SDS011;18103;52.246;8.052;2023-06-04T11:13:10;2.20;;;0.60;;
31482;SDS011;18103;52.246;8.052;2023-06-04T11:15:42;1.50;;;0.70;;
31482;SDS011;18103;52.246;8.052;2023-06-04T11:18:13;5.07;;;1.03;;
31482;SDS011;18103;52.246;8.052;2023-06-04T11:20:43;0.60;;;0.50;;
31482;SDS011;18103;52.246;8.052;2023-06-04T11:23:11;1.07;;;0.80;;
31482;SDS011;18103;52.246;8.052;2023-06-04T11:25:38;0.77;;;0.60;;
31482;SDS011;18103;52.246;8.052;2023-06-04T11:28:03;1.40;;;0.60;;
31482;SDS011;18103;52.246;8.052;2023-06-04T11:30:29;2.47;;;0.70;;
31482;SDS011;18103;52.246;8.052;2023-06-04T11:33:00;1.03;;;0.57;;
31482;SDS011;18103;52.246;8.052;2023-06-04T11:35:29;2.37;;;0.90;;
31482;SDS011;18103;52.246;8.052;2023-06-04T11:37:56;0.93;;;0.70;;
31482;SDS011;18103;52.246;8.052;2023-06-04T11:40:23;1.03;;;0.60;;
31482;SDS011;18103;52.246;8.052;2023-06-04T11:42:49;2.27;;;0.90;;
31482;SDS011;18103;52.246;8.052;2023-06-04T11:45:19;1.63;;;0.80;;
31482;SDS011;18103;52.246;8.052;2023-06-04T11:47:52;1.57;;;0.93;;
31482;SDS011;18103;52.246;8.052;2023-06-04T11:50:20;4.57;;;0.90;;
31482;SDS011;18103;52.246;8.052;2023-06-04T11:52:47;2.60;;;1.13;;
31482;SDS011;18103;52.246;8.052;2023-06-04T11:55:13;4.83;;;1.10;;
31482;SDS011;18103;52.246;8.052;2023-06-04T11:57:39;1.03;;;0.70;;
31482;SDS011;18103;52.246;8.052;2023-06-04T12:00:10;4.07;;;0.90;;
31482;SDS011;18103;52.246;8.052;2023-06-04T12:02:48;1.27;;;0.77;;
31482;SDS011;18103;52.246;8.052;2023-06-04T12:05:18;3.87;;;0.80;;
31482;SDS011;18103;52.246;8.052;2023-06-04T12:07:44;4.77;;;0.90;;
31482;SDS011;18103;52.246;8.052;2023-06-04T12:10:15;1.17;;;0.80;;
31482;SDS011;18103;52.246;8.052;2023-06-04T12:12:43;1.63;;;1.00;;
31482;SDS011;18103;52.246;8.052;2023-06-04T12:15:09;1.07;;;0.70;;
31482;SDS011;18103;52.246;8.052;2023-06-04T12:17:48;2.73;;;0.97;;
31482;SDS011;18103;52.246;8.052;2023-06-04T12:20:35;1.30;;;0.70;;
31482;SDS011;18103;52.246;8.052;2023-06-04T12:23:02;1.00;;;0.73;;
31482;SDS011;18103;52.246;8.052;2023-06-04T12:25:29;1.53;;;0.80;;
31482;SDS011;18103;52.246;8.052;2023-06-04T12:27:55;2.70;;;0.77;;
31482;SDS011;18103;52.246;8.052;2023-06-04T12:30:21;1.33;;;1.00;;
31482;SDS011;18103;52.246;8.052;2023-06-04T12:32:48;2.30;;;0.53;;
31482;SDS011;18103;52.246;8.052;2023-06-04T12:35:16;1.63;;;1.10;;
31482;SDS011;18103;52.246;8.052;2023-06-04T12:37:41;2.63;;;1.13;;
31482;SDS011;18103;52.246;8.052;2023-06-04T12:40:07;1.30;;;0.80;;
31482;SDS011;18103;52.246;8.052;2023-06-04T12:42:33;2.07;;;0.70;;
31482;SDS011;18103;52.246;8.052;2023-06-04T12:45:01;2.10;;;0.70;;
31482;SDS011;18103;52.246;8.052;2023-06-04T12:47:27;1.20;;;0.80;;
31482;SDS011;18103;52.246;8.052;2023-06-04T12:49:54;1.77;;;0.80;;
31482;SDS011;18103;52.246;8.052;2023-06-04T12:52:24;2.13;;;1.07;;
31482;SDS011;18103;52.246;8.052;2023-06-04T12:54:52;1.93;;;0.97;;
31482;SDS011;18103;52.246;8.052;2023-06-04T12:57:20;1.83;;;0.97;;
31482;SDS011;18103;52.246;8.052;2023-06-04T12:59:45;3.40;;;0.80;;
31482;SDS011;18103;52.246;8.052;2023-06-04T13:02:13;2.13;;;0.83;;
31482;SDS011;18103;52.246;8.052;2023-06-04T13:04:38;2.93;;;1.13;;
31482;SDS011;18103;52.246;8.052;2023-06-04T13:07:07;1.73;;;1.13;;
31482;SDS011;18103;52.246;8.052;2023-06-04T13:09:33;2.40;;;1.07;;
31482;SDS011;18103;52.246;8.052;2023-06-04T13:12:00;2.27;;;0.97;;
31482;SDS011;18103;52.246;8.052;2023-06-04T13:14:25;1.83;;;0.90;;
31482;SDS011;18103;52.246;8.052;2023-06-04T13:16:50;1.23;;;0.90;;
31482;SDS011;18103;52.246;8.052;2023-06-04T13:19:16;2.67;;;0.87;;
31482;SDS011;18103;52.246;8.052;2023-06-04T13:21:41;1.70;;;0.80;;
31482;SDS011;18103;52.246;8.052;2023-06-04T13:24:09;1.50;;;0.87;;
31482;SDS011;18103;52.246;8.052;2023-06-04T13:26:38;2.50;;;0.83;;
31482;SDS011;18103;52.246;8.052;2023-06-04T13:29:07;4.73;;;0.70;;
31482;SDS011;18103;52.246;8.052;2023-06-04T13:31:32;1.17;;;0.90;;
31482;SDS011;18103;52.246;8.052;2023-06-04T13:33:57;3.43;;;0.97;;
31482;SDS011;18103;52.246;8.052;2023-06-04T13:36:25;0.97;;;0.80;;
31482;SDS011;18103;52.246;8.052;2023-06-04T13:38:53;2.53;;;1.07;;
31482;SDS011;18103;52.246;8.052;2023-06-04T13:41:20;10.00;;;1.00;;
31482;SDS011;18103;52.246;8.052;2023-06-04T13:43:48;1.10;;;0.80;;
31482;SDS011;18103;52.246;8.052;2023-06-04T13:46:14;1.33;;;0.83;;
31482;SDS011;18103;52.246;8.052;2023-06-04T13:48:39;0.73;;;0.73;;
31482;SDS011;18103;52.246;8.052;2023-06-04T13:51:04;1.00;;;0.77;;
31482;SDS011;18103;52.246;8.052;2023-06-04T13:53:33;3.13;;;1.10;;
31482;SDS011;18103;52.246;8.052;2023-06-04T13:55:58;3.13;;;0.87;;
31482;SDS011;18103;52.246;8.052;2023-06-04T13:58:27;3.27;;;1.17;;
31482;SDS011;18103;52.246;8.052;2023-06-04T14:00:55;1.40;;;0.90;;
31482;SDS011;18103;52.246;8.052;2023-06-04T14:03:25;2.20;;;0.97;;
31482;SDS011;18103;52.246;8.052;2023-06-04T14:05:53;1.83;;;1.00;;
31482;SDS011;18103;52.246;8.052;2023-06-04T14:08:21;1.83;;;0.87;;
31482;SDS011;18103;52.246;8.052;2023-06-04T14:10:46;1.17;;;0.83;;
31482;SDS011;18103;52.246;8.052;2023-06-04T14:13:12;1.77;;;0.97;;
31482;SDS011;18103;52.246;8.052;2023-06-04T14:15:37;1.47;;;0.90;;
31482;SDS011;18103;52.246;8.052;2023-06-04T14:18:03;1.43;;;0.90;;
31482;SDS011;18103;52.246;8.052;2023-06-04T14:20:29;1.93;;;0.83;;
31482;SDS011;18103;52.246;8.052;2023-06-04T14:22:55;3.43;;;1.40;;
31482;SDS011;18103;52.246;8.052;2023-06-04T14:25:20;1.57;;;0.90;;
31482;SDS011;18103;52.246;8.052;2023-06-04T14:27:48;1.50;;;0.80;;
31482;SDS011;18103;52.246;8.052;2023-06-04T14:30:13;1.33;;;0.90;;
31482;SDS011;18103;52.246;8.052;2023-06-04T14:32:39;1.57;;;0.90;;
31482;SDS011;18103;52.246;8.052;2023-06-04T14:35:05;2.20;;;0.90;;
31482;SDS011;18103;52.246;8.052;2023-06-04T14:37:33;1.50;;;0.90;;
31482;SDS011;18103;52.246;8.052;2023-06-04T14:39:59;0.80;;;0.60;;
31482;SDS011;18103;52.246;8.052;2023-06-04T14:42:27;4.97;;;1.30;;
31482;SDS011;18103;52.246;8.052;2023-06-04T14:44:53;1.00;;;0.70;;
31482;SDS011;18103;52.246;8.052;2023-06-04T14:47:21;1.27;;;1.00;;
31482;SDS011;18103;52.246;8.052;2023-06-04T14:49:49;5.63;;;2.00;;
31482;SDS011;18103;52.246;8.052;2023-06-04T14:52:15;1.10;;;0.87;;
31482;SDS011;18103;52.246;8.052;2023-06-04T14:54:42;1.83;;;1.07;;
31482;SDS011;18103;52.246;8.052;2023-06-04T14:57:10;1.13;;;1.03;;